Alton, VA

2:15 PM EDT on August 30, 2014 (GMT -0400)
Union Community Near South Boston, Va | Change Station
CLOSE
Current Station
Personal Weather Station
Location: South Boston, VA
Elevation: 440 ft
Nearby Weather Stations

Elev 440 ft 36.70 °N, 79.00 °W | Updated 34 seconds ago

Mostly Cloudy
Mostly Cloudy
85.1 °F
Feels Like 95 °F
N
0.0
Wind Variable Wind from ESE
Gusts 7.0 mph

Today
High -- | Low -- °F
--% Chance of Precip.
Yesterday
High -- | Low -- °F
Precip. -- in
6:44 AM 7:46 PM
Waxing Crescent, 23% visible
Pressure 30.15 in
Visibility -9999.0 miles
Clouds Few 2700 ft
Heat Index 95 °F
Dew Point 77 °F
Humidity 76%
Rainfall 0.00 in
Snow Depth Not available.
UV 9 out of 12
Pollen 8.60 out of 12
Air Quality Not available.
Flu Activity Not available.
METAR KDAN 301753Z AUTO VRB03KT FEW027 31/22 A3018 RMK AO2 SLP210 T03060222 10306 20222 58012 $

More Conditions Fewer Conditions

Pressure 30.15 in
Visibility -9999.0 miles
Clouds Few 2700 ft
Heat Index 95 °F
Dew Point 77 °F
Humidity 76%
Rainfall 0.00 in
Snow Depth Not available.
UV 9 out of 12
Pollen 8.60 out of 12
Air Quality Not available.
Flu Activity Not available.
METAR KDAN 301753Z AUTO VRB03KT FEW027 31/22 A3018 RMK AO2 SLP210 T03060222 10306 20222 58012 $

More Conditions Fewer Conditions

10-Day Weather Forecast

Almanac

Astronomy

Aug. 30, 2014 Rise Set
Actual Time 6:44 AM EDT 7:46 PM EDT
Civil Twilight 6:18 AM EDT 8:12 PM EDT
Nautical Twilight 5:46 AM EDT 8:44 PM EDT
Astronomical Twilight 5:13 AM EDT 9:17 PM EDT
Moon 11:22 AM EDT 10:28 PM EDT
Length of Visible Light 13h 54m
Length of Day
13h 01m
Tomorrow will be 2m 13s shorter.
Waxing Crescent, 23% of the Moon is Illuminated
Today
Waxing Crescent
Sep 2
First Quarter
Sep 8
Full
Sep 15
Last Quarter
Sep 24
New

Today's Extremes

State Highs State Lows

Community

WunderPhotos

Upload Photos

1,748,583 photos uploaded!

WunderBlogs® & News

Nearby

Snow Depth

Station Depth Elevation
No new snow has been reported.

Earthquake Activity

City Distance Mag. Time & Date
No recent earthquake activity has been reported nearby.
Minimum magnitude displayed is 2.5.

Coastal Water Temperatures

Place Temperature
No Stations Reporting

Nearby Weather Stations